Colorado Springs, CO (80919)

12:06 AM MST on February 07, 2016 (GMT -0700)
At the Orton-Urbina's | | Change Station
CLOSE
Current Station
Personal Weather Station
Location: Colorado Springs, CO
Elevation: 6700 ft
Nearby Weather Stations

Elev 6700 ft 38.93 °N, 104.85 °W | Updated 1 minute ago

Partly Cloudy
Partly Cloudy
44.7 °F
Feels Like 39 °F
N
10.1
Wind Variable Wind from SSW
Gusts 24.0 mph

Today
High -- | Low -- °F
--% Chance of Precip.
Yesterday
High -- | Low -- °F
Precip. -- in
Pressure 30.10 in
Visibility 10.0 miles
Clouds Clear
Windchill 39 °F
Dew Point 6 °F
Humidity 20%
Rainfall Not available.
Snow Depth Not available.
7:00 AM 5:27 PM
Waning Crescent, 2% visible
METAR KAFF 070658Z AUTO 28012G18KT 10SM CLR 05/M14 A3013 RMK AO2 SLP193 T00491145 400841174
Pressure 30.10 in
Visibility 10.0 miles
Clouds Clear
Windchill 39 °F
Dew Point 6 °F
Humidity 20%
Rainfall Not available.
Snow Depth Not available.
7:00 AM 5:27 PM
Waning Crescent, 2% visible
METAR KAFF 070658Z AUTO 28012G18KT 10SM CLR 05/M14 A3013 RMK AO2 SLP193 T00491145 400841174

10-Day Weather Forecast

Almanac

Astronomy

Feb. 07, 2016 Rise Set
Actual Time
Civil Twilight
Nautical Twilight
Astronomical Twilight
Moon
Length of Visible Light
Length of Day
Tomorrow will be .
, % of the Moon is Illuminated

Today's Extremes

State Highs State Lows

Community

WunderPhotos

Upload Photos

1,891,174 photos uploaded!

WunderBlog® & News

Nearby

Air Quality

  Air Quality AQ Index Pollutant
Not available.

Snow Depth

Station Depth Elevation

Earthquake Activity

City Distance Mag. Time & Date
Minimum magnitude displayed is 2.5.

Coastal Water Temperatures

Place Temperature

Stations

Nearby Weather Stations

Station Location Temp. Windchill Dew Point Humidity Wind Precip. Elev Updated Type
                   

Watches & Warnings

There are currently no watches in effect.